Poco Fundo, Brazil
Current Conditions -  °F | °C
As of 2:00 PM on Monday 20 Oct 2014 (Local Time) from SBKG Reporting Station
Scattered Clouds Scattered Clouds  
Wind Chill: 88°   Ceiling: Unl
Heat Index: 88°   Visibility: 6mi
Dew Point: 59°   Wind: 14mph
Humidity: 38%   Direction: 120°ESE
Pressure: 29.91"   Gusts: NA
Location:  7.95°S, 36.33°W
Report Text: SBKG 201700Z 12012KT 9999 SCT040 31/15 Q1013
Loading
Personal Weather Stations






























Interactive Weather Map
Tropical Storm Tracking
New forecast layout! Learn more

10-Day Weather Forecast

Advertisements
Track Severe Weather on mobile